Time;durP1;ratioP1;P1;durP2;ratioP2;P2;SDS_P1;SDS_P2;PMS_P1;PMS_P2;Temp;Humidity;BMP_temperature;BMP_pressure;BME280_temperature;BME280_humidity;BME280_pressure;Samples;Min_cycle;Max_cycle;Signal;HPM_P1;HPM_P2
2024/01/02 00:00:47;;;;;;;;;;;;;;;3.62;100.00;95889.72;5084447;28;20004;-73
2024/01/02 00:03:13;;;;;;;;;;;;;;;3.64;100.00;95883.34;5083043;28;19999;-73
2024/01/02 00:05:39;;;;;;;;;;;;;;;3.64;100.00;95873.00;5084393;28;20265;-73
2024/01/02 00:08:04;;;;;;;;;;;;;;;3.66;100.00;95876.19;5084251;28;19958;-73
2024/01/02 00:10:30;;;;;;;;;;;;;;;3.68;100.00;95872.63;5082664;28;19946;-74
2024/01/02 00:12:58;;;;;;;;;;;;;;;3.69;100.00;95863.84;5083376;28;19960;-73
2024/01/02 00:15:24;;;;;;;;;;;;;;;3.70;100.00;95858.47;5084053;28;19952;-75
2024/01/02 00:17:50;;;;;;;;;;;;;;;3.71;100.00;95859.28;5084136;28;19958;-74
2024/01/02 00:20:16;;;;;;;;;;;;;;;3.72;100.00;95848.72;5082619;28;19982;-74
2024/01/02 00:22:41;;;;;;;;;;;;;;;3.72;100.00;95856.50;5084390;28;19969;-75
2024/01/02 00:25:07;;;;;;;;;;;;;;;3.72;100.00;95848.72;5083883;28;20192;-74
2024/01/02 00:27:33;;;;;;;;;;;;;;;3.72;100.00;95843.53;5083977;28;20031;-73
2024/01/02 00:29:59;;;;;;;;;;;;;;;3.75;100.00;95845.72;5084163;28;19958;-74
2024/01/02 00:32:25;;;;;;;;;;;;;;;3.77;100.00;95838.56;5082717;28;19959;-74
2024/01/02 00:34:51;;;;;;;;;;;;;;;3.79;100.00;95831.41;5086667;28;19999;-74
2024/01/02 00:37:17;;;;;;;;;;;;;;;3.80;100.00;95825.22;5087937;28;20143;-74
2024/01/02 00:39:43;;;;;;;;;;;;;;;3.81;100.00;95813.06;5086322;28;20033;-74
2024/01/02 00:42:08;;;;;;;;;;;;;;;3.80;100.00;95804.50;5087543;28;19972;-74
2024/01/02 00:44:34;;;;;;;;;;;;;;;3.79;100.00;95802.88;5087913;28;19958;-74
2024/01/02 00:47:00;;;;;;;;;;;;;;;3.81;100.00;95800.88;5087678;28;19972;-73
2024/01/02 00:49:26;;;;;;;;;;;;;;;3.82;100.00;95784.34;5086897;28;19969;-73
2024/01/02 00:51:52;;;;;;;;;;;;;;;3.82;100.00;95779.16;5086385;28;19958;-73
2024/01/02 00:54:18;;;;;;;;;;;;;;;3.84;100.00;95777.19;5087301;28;20168;-73
2024/01/02 00:56:43;;;;;;;;;;;;;;;3.84;100.00;95779.78;5087613;28;19955;-72
2024/01/02 00:59:11;;;;;;;;;;;;;;;3.85;100.00;95776.16;5087314;28;19958;-74
2024/01/02 01:01:37;;;;;;;;;;;;;;;3.84;100.00;95769.41;5085957;28;19958;-73
2024/01/02 01:04:03;;;;;;;;;;;;;;;3.86;100.00;95766.59;5087321;28;20018;-75
2024/01/02 01:06:29;;;;;;;;;;;;;;;3.88;100.00;95761.22;5087330;28;19960;-73
2024/01/02 01:08:55;;;;;;;;;;;;;;;3.88;100.00;95762.00;5085774;28;19991;-74
2024/01/02 01:11:21;;;;;;;;;;;;;;;3.88;100.00;95756.03;5087298;28;19969;-73
2024/01/02 01:13:47;;;;;;;;;;;;;;;3.88;100.00;95756.03;5087297;28;20003;-73
2024/01/02 01:16:12;;;;;;;;;;;;;;;3.87;100.00;95755.25;5086764;28;19977;-73
2024/01/02 01:18:38;;;;;;;;;;;;;;;3.85;100.00;95747.66;5086593;28;19990;-73
2024/01/02 01:21:04;;;;;;;;;;;;;;;3.88;100.00;95758.63;5087260;28;19950;-74
2024/01/02 01:23:30;;;;;;;;;;;;;;;3.88;100.00;95751.63;5086865;28;19996;-74
2024/01/02 01:25:56;;;;;;;;;;;;;;;3.85;100.00;95750.22;5085691;28;19981;-74
2024/01/02 01:28:21;;;;;;;;;;;;;;;3.84;100.00;95746.06;5086581;28;19961;-74
2024/01/02 01:30:47;;;;;;;;;;;;;;;3.84;100.00;95748.66;5086793;28;19996;-74
2024/01/02 01:33:13;;;;;;;;;;;;;;;3.83;100.00;95747.03;5086905;28;19972;-74
2024/01/02 01:35:39;;;;;;;;;;;;;;;3.82;100.00;95739.44;5085416;28;19970;-74
2024/01/02 01:38:05;;;;;;;;;;;;;;;3.82;100.00;95740.25;5085421;28;19957;-74
2024/01/02 01:40:31;;;;;;;;;;;;;;;3.83;100.00;95741.84;5085733;28;19962;-74
2024/01/02 01:42:56;;;;;;;;;;;;;;;3.83;100.00;95734.06;5086332;28;19980;-73
2024/01/02 01:45:22;;;;;;;;;;;;;;;3.84;100.00;95733.09;5085860;28;19958;-74
2024/01/02 01:47:49;;;;;;;;;;;;;;;3.85;100.00;95739.88;5085537;28;19975;-74
2024/01/02 01:50:15;;;;;;;;;;;;;;;3.86;100.00;95725.91;5086660;28;19959;-74
2024/01/02 01:52:42;;;;;;;;;;;;;;;3.86;100.00;95714.72;5086377;28;20122;-74
2024/01/02 01:55:08;;;;;;;;;;;;;;;3.84;100.00;95721.88;5086250;28;20121;-74
2024/01/02 01:57:34;;;;;;;;;;;;;;;3.84;100.00;95714.94;5086090;28;19994;-74
2024/01/02 02:00:00;;;;;;;;;;;;;;;3.85;100.00;95710.53;5086284;28;19960;-73
2024/01/02 02:02:26;;;;;;;;;;;;;;;3.88;100.00;95704.16;5084983;28;19961;-74
2024/01/02 02:04:53;;;;;;;;;;;;;;;3.89;100.00;95710.97;5084973;28;19963;-75
2024/01/02 02:07:18;;;;;;;;;;;;;;;3.89;100.00;95708.38;5085659;28;20065;-74
2024/01/02 02:09:44;;;;;;;;;;;;;;;3.89;100.00;95714.34;5086069;28;20255;-75
2024/01/02 02:12:10;;;;;;;;;;;;;;;3.90;100.00;95707.34;5085056;28;19976;-74
2024/01/02 02:14:36;;;;;;;;;;;;;;;3.90;100.00;95702.97;5084972;28;20022;-74
2024/01/02 02:17:02;;;;;;;;;;;;;;;3.91;100.00;95693.41;5084990;28;20266;-74
2024/01/02 02:19:27;;;;;;;;;;;;;;;3.90;100.00;95689.19;5084607;28;19964;-73
2024/01/02 02:21:58;;;;;;;;;;;;;;;3.85;100.00;95685.41;5085887;28;20120;-75
2024/01/02 02:24:23;;;;;;;;;;;;;;;3.84;100.00;95676.03;5085083;28;20231;-75
2024/01/02 02:26:49;;;;;;;;;;;;;;;3.84;100.00;95672.63;5084190;28;20112;-75
2024/01/02 02:29:15;;;;;;;;;;;;;;;3.81;100.00;95660.84;5043668;28;20030;-75
2024/01/02 02:31:41;;;;;;;;;;;;;;;3.78;100.00;95647.47;5043505;28;20191;-75
2024/01/02 02:34:07;;;;;;;;;;;;;;;3.77;100.00;95651.06;5027192;28;20203;-75
2024/01/02 02:36:32;;;;;;;;;;;;;;;3.75;100.00;95646.06;5043471;28;20018;-74
2024/01/02 02:38:58;;;;;;;;;;;;;;;3.76;100.00;95646.84;5043461;28;19985;-72
2024/01/02 02:41:24;;;;;;;;;;;;;;;3.74;100.00;95634.09;5027339;28;19952;-73
2024/01/02 02:43:50;;;;;;;;;;;;;;;3.72;100.00;95628.31;5043487;28;19963;-73
2024/01/02 02:46:16;;;;;;;;;;;;;;;3.74;100.00;95625.50;5043313;28;19976;-72
2024/01/02 02:48:42;;;;;;;;;;;;;;;3.75;100.00;95614.16;5043256;28;19956;-72
2024/01/02 02:51:09;;;;;;;;;;;;;;;3.74;100.00;95608.16;5043082;28;20272;-72
2024/01/02 02:53:35;;;;;;;;;;;;;;;3.75;100.00;95614.16;5043085;28;19962;-72
2024/01/02 02:56:01;;;;;;;;;;;;;;;3.72;100.00;95597.19;5042959;28;19950;-73
2024/01/02 02:58:27;;;;;;;;;;;;;;;3.74;100.00;95602.97;5042815;28;19960;-75
2024/01/02 03:00:53;;;;;;;;;;;;;;;3.75;100.00;95589.00;5074599;28;19953;-74
2024/01/02 03:03:18;;;;;;;;;;;;;;;3.76;100.00;95597.59;5085099;28;20033;-74
2024/01/02 03:05:44;;;;;;;;;;;;;;;3.74;100.00;95584.84;5085029;28;20271;-74
2024/01/02 03:08:10;;;;;;;;;;;;;;;3.76;100.00;95588.03;5084948;28;20006;-74
2024/01/02 03:10:36;;;;;;;;;;;;;;;3.76;100.00;95582.03;5084506;28;19940;-74
2024/01/02 03:13:02;;;;;;;;;;;;;;;3.77;100.00;95579.25;5085030;28;19955;-72
2024/01/02 03:15:28;;;;;;;;;;;;;;;3.78;100.00;95572.25;5083840;28;19966;-73
2024/01/02 03:17:54;;;;;;;;;;;;;;;3.78;100.00;95561.88;5084507;28;19950;-73
2024/01/02 03:20:19;;;;;;;;;;;;;;;3.78;100.00;95560.09;5085044;28;19956;-73
2024/01/02 03:22:45;;;;;;;;;;;;;;;3.81;100.00;95553.72;5084583;28;20016;-73
2024/01/02 03:25:11;;;;;;;;;;;;;;;3.80;100.00;95555.53;5084987;28;19959;-74
2024/01/02 03:27:37;;;;;;;;;;;;;;;3.81;100.00;95545.94;5084753;28;19964;-73
2024/01/02 03:30:03;;;;;;;;;;;;;;;3.82;100.00;95534.56;5084832;28;20004;-73
2024/01/02 03:32:29;;;;;;;;;;;;;;;3.83;100.00;95536.16;5084698;28;19956;-73
2024/01/02 03:34:56;;;;;;;;;;;;;;;3.83;100.00;95526.59;5083479;28;20276;-72
2024/01/02 03:37:22;;;;;;;;;;;;;;;3.82;100.00;95522.41;5083488;28;19975;-74
2024/01/02 03:39:48;;;;;;;;;;;;;;;3.83;100.00;95520.59;5083009;28;19943;-73
2024/01/02 03:42:14;;;;;;;;;;;;;;;3.84;100.00;95515.25;5084548;28;19957;-73
2024/01/02 03:44:39;;;;;;;;;;;;;;;3.84;100.00;95504.88;5084861;28;20240;-73
2024/01/02 03:47:05;;;;;;;;;;;;;;;3.84;100.00;95497.09;5083351;28;19964;-74
2024/01/02 03:49:31;;;;;;;;;;;;;;;3.86;100.00;95502.88;5083607;28;19961;-74
2024/01/02 03:51:57;;;;;;;;;;;;;;;3.86;100.00;95489.06;5083001;28;19956;-73
2024/01/02 03:54:23;;;;;;;;;;;;;;;3.89;100.00;95483.50;5084526;28;19950;-74
2024/01/02 03:56:49;;;;;;;;;;;;;;;3.89;100.00;95483.50;5083934;28;20027;-74
2024/01/02 03:59:14;;;;;;;;;;;;;;;3.89;100.00;95478.31;5084288;28;20011;-74
2024/01/02 04:01:43;;;;;;;;;;;;;;;3.91;100.00;95467.75;5084511;28;19971;-75
2024/01/02 04:04:09;;;;;;;;;;;;;;;3.90;100.00;95469.53;5084061;28;19974;-74
2024/01/02 04:06:35;;;;;;;;;;;;;;;3.91;100.00;95468.56;5084646;28;19966;-75
2024/01/02 04:09:01;;;;;;;;;;;;;;;3.92;100.00;95472.72;5085948;28;19963;-75
2024/01/02 04:11:27;;;;;;;;;;;;;;;3.93;100.00;95469.16;5088253;28;19997;-73
2024/01/02 04:13:53;;;;;;;;;;;;;;;3.93;100.00;95466.56;5088673;28;20285;-73
2024/01/02 04:16:18;;;;;;;;;;;;;;;3.94;100.00;95460.34;5088598;28;20120;-73
2024/01/02 04:18:45;;;;;;;;;;;;;;;3.94;100.00;95459.56;5088336;28;19952;-73
2024/01/02 04:21:10;;;;;;;;;;;;;;;3.95;100.00;95464.56;5088014;28;19962;-74
2024/01/02 04:23:36;;;;;;;;;;;;;;;3.97;100.00;95461.75;5087154;28;20023;-73
2024/01/02 04:26:02;;;;;;;;;;;;;;;3.99;100.00;95462.34;5087904;28;19964;-74
2024/01/02 04:28:28;;;;;;;;;;;;;;;3.98;100.00;95452.97;5086655;28;19956;-73
2024/01/02 04:30:54;;;;;;;;;;;;;;;3.98;100.00;95455.56;5086781;28;19956;-72
2024/01/02 04:33:20;;;;;;;;;;;;;;;3.98;100.00;95453.78;5087971;28;19997;-72
2024/01/02 04:35:46;;;;;;;;;;;;;;;3.96;100.00;95436.81;5069952;28;19966;-72
2024/01/02 04:38:11;;;;;;;;;;;;;;;3.95;100.00;95438.63;5087921;28;19964;-72
2024/01/02 04:40:37;;;;;;;;;;;;;;;3.94;100.00;95438.81;5086334;28;19969;-72
2024/01/02 04:43:03;;;;;;;;;;;;;;;3.91;100.00;95432.25;5087423;28;19997;-72
2024/01/02 04:45:29;;;;;;;;;;;;;;;3.89;100.00;95418.69;5087382;28;19955;-73
2024/01/02 04:47:55;;;;;;;;;;;;;;;3.89;100.00;95417.88;5086166;28;20055;-73
2024/01/02 04:50:21;;;;;;;;;;;;;;;3.89;100.00;95416.06;5086192;28;19953;-72
2024/01/02 04:52:47;;;;;;;;;;;;;;;3.88;100.00;95409.28;5087842;28;19962;-73
2024/01/02 04:55:13;;;;;;;;;;;;;;;3.88;100.00;95404.09;5087339;28;19964;-73
2024/01/02 04:57:39;;;;;;;;;;;;;;;3.87;100.00;95397.31;5087413;28;19956;-73
2024/01/02 05:00:05;;;;;;;;;;;;;;;3.84;100.00;95401.13;5086022;28;19970;-74
2024/01/02 05:02:32;;;;;;;;;;;;;;;3.83;100.00;95391.75;5087484;28;19968;-73
2024/01/02 05:04:58;;;;;;;;;;;;;;;3.83;100.00;95383.16;5087509;28;19961;-74
2024/01/02 05:07:24;;;;;;;;;;;;;;;3.84;100.00;95380.38;5085817;28;20013;-72
2024/01/02 05:09:49;;;;;;;;;;;;;;;3.83;100.00;95385.75;5086755;28;19954;-72
2024/01/02 05:12:17;;;;;;;;;;;;;;;3.84;100.00;95375.19;5086986;28;20024;-72
2024/01/02 05:14:43;;;;;;;;;;;;;;;3.85;100.00;95374.19;5086703;28;20140;-72
2024/01/02 05:17:09;;;;;;;;;;;;;;;3.87;100.00;95376.59;5086793;28;19963;-72
2024/01/02 05:19:35;;;;;;;;;;;;;;;3.89;100.00;95371.19;5086482;28;19977;-72
2024/01/02 05:22:01;;;;;;;;;;;;;;;3.89;100.00;95371.19;5087333;28;20252;-73
2024/01/02 05:24:27;;;;;;;;;;;;;;;3.88;100.00;95365.19;5086911;28;19964;-73
2024/01/02 05:26:53;;;;;;;;;;;;;;;3.91;100.00;95359.63;5068722;28;20324;-73
2024/01/02 05:29:18;;;;;;;;;;;;;;;3.90;100.00;95357.22;5068876;28;19995;-74
2024/01/02 05:31:44;;;;;;;;;;;;;;;3.90;100.00;95344.25;5087000;28;20177;-72
2024/01/02 05:34:10;;;;;;;;;;;;;;;3.90;100.00;95337.25;5086899;28;19956;-73
2024/01/02 05:36:36;;;;;;;;;;;;;;;3.91;100.00;95335.50;5086947;28;19967;-73
2024/01/02 05:39:02;;;;;;;;;;;;;;;3.91;100.00;95340.69;5085176;28;19956;-73
2024/01/02 05:41:28;;;;;;;;;;;;;;;3.92;100.00;95335.25;5086386;28;19951;-74
2024/01/02 05:43:54;;;;;;;;;;;;;;;3.93;100.00;95341.28;5086746;28;20187;-73
2024/01/02 05:46:20;;;;;;;;;;;;;;;3.93;100.00;95339.47;5086855;28;20187;-73
2024/01/02 05:48:46;;;;;;;;;;;;;;;3.94;100.00;95340.25;5085550;28;20251;-73
2024/01/02 05:51:12;;;;;;;;;;;;;;;3.94;100.00;95338.44;5086332;28;19964;-73
2024/01/02 05:53:37;;;;;;;;;;;;;;;3.96;100.00;95327.88;5086290;28;19959;-74
2024/01/02 05:56:03;;;;;;;;;;;;;;;3.95;100.00;95323.69;5086621;28;19969;-72
2024/01/02 05:58:29;;;;;;;;;;;;;;;3.96;100.00;95318.28;5086267;28;19955;-73
2024/01/02 06:00:55;;;;;;;;;;;;;;;3.97;100.00;95317.31;5086360;28;20141;-74
2024/01/02 06:03:21;;;;;;;;;;;;;;;3.98;100.00;95305.13;5085096;28;19987;-75
2024/01/02 06:05:47;;;;;;;;;;;;;;;3.98;100.00;95295.53;5086572;28;19962;-74
2024/01/02 06:08:13;;;;;;;;;;;;;;;3.99;100.00;95294.56;5085526;28;19969;-74
2024/01/02 06:10:41;;;;;;;;;;;;;;;3.99;100.00;95304.13;5086195;28;19961;-74
2024/01/02 06:13:07;;;;;;;;;;;;;;;4.01;100.00;95296.94;5068472;28;19971;-74
2024/01/02 06:15:33;;;;;;;;;;;;;;;4.02;100.00;95299.31;5084810;28;19963;-74
2024/01/02 06:17:59;;;;;;;;;;;;;;;4.05;100.00;95304.13;5086256;28;19958;-72
2024/01/02 06:20:25;;;;;;;;;;;;;;;4.07;100.00;95307.31;5085681;28;19965;-73
2024/01/02 06:22:51;;;;;;;;;;;;;;;4.10;100.00;95302.72;5067801;28;19968;-73
2024/01/02 06:25:16;;;;;;;;;;;;;;;4.12;100.00;95298.91;5085646;28;19957;-73
2024/01/02 06:27:42;;;;;;;;;;;;;;;4.11;100.00;95294.69;5085868;28;19969;-73
2024/01/02 06:30:08;;;;;;;;;;;;;;;4.13;100.00;95297.88;5085700;28;19952;-74
2024/01/02 06:32:34;;;;;;;;;;;;;;;4.14;100.00;95304.69;5084710;28;19961;-73
2024/01/02 06:35:00;;;;;;;;;;;;;;;4.16;100.00;95292.31;5084306;28;19968;-74
2024/01/02 06:37:28;;;;;;;;;;;;;;;4.17;100.00;95300.88;5067536;28;19983;-74
2024/01/02 06:39:53;;;;;;;;;;;;;;;4.19;100.00;95288.50;5085113;28;19963;-75
2024/01/02 06:42:19;;;;;;;;;;;;;;;4.19;100.00;95291.88;5084555;28;19994;-74
2024/01/02 06:44:45;;;;;;;;;;;;;;;4.20;100.00;95290.88;5083868;28;19966;-74
2024/01/02 06:47:11;;;;;;;;;;;;;;;4.21;100.00;95300.25;5085008;28;20228;-74
2024/01/02 06:49:37;;;;;;;;;;;;;;;4.22;100.00;95293.25;5085404;28;19987;-75
2024/01/02 06:52:10;;;;;;;;;;;;;;;4.22;100.00;95288.06;5102797;28;19948;-74
2024/01/02 06:54:36;;;;;;;;;;;;;;;4.24;100.00;95286.06;5101025;28;19940;-73
2024/01/02 06:57:02;;;;;;;;;;;;;;;4.25;100.00;95293.66;5101733;28;19945;-74
2024/01/02 06:59:29;;;;;;;;;;;;;;;4.26;100.00;95287.47;5101648;28;19964;-74
2024/01/02 07:01:55;;;;;;;;;;;;;;;4.29;100.00;95282.88;5101543;28;20239;-72
2024/01/02 07:04:21;;;;;;;;;;;;;;;4.32;100.00;95287.63;5101123;28;19938;-73
2024/01/02 07:06:47;;;;;;;;;;;;;;;4.32;100.00;95277.25;5102368;28;19979;-73
2024/01/02 07:09:14;;;;;;;;;;;;;;;4.35;100.00;95289.84;5101550;28;19959;-74
2024/01/02 07:11:39;;;;;;;;;;;;;;;4.37;100.00;95280.03;5101326;28;19954;-75
2024/01/02 07:14:05;;;;;;;;;;;;;;;4.39;100.00;95290.97;5102249;28;19945;-74
2024/01/02 07:16:32;;;;;;;;;;;;;;;4.41;100.00;95282.00;5100314;28;19942;-74
2024/01/02 07:18:57;;;;;;;;;;;;;;;4.44;100.00;95288.56;5101314;28;19953;-74
2024/01/02 07:21:23;;;;;;;;;;;;;;;4.48;100.00;95292.34;5101241;28;19942;-73
2024/01/02 07:23:49;;;;;;;;;;;;;;;4.51;100.00;95289.31;5101167;28;19936;-74
2024/01/02 07:26:16;;;;;;;;;;;;;;;4.56;100.00;95286.13;5101098;28;19941;-74
2024/01/02 07:28:42;;;;;;;;;;;;;;;4.59;100.00;95283.09;5101677;28;20227;-74
2024/01/02 07:31:09;;;;;;;;;;;;;;;4.63;100.00;95289.47;5100729;28;19995;-73
2024/01/02 07:33:34;;;;;;;;;;;;;;;4.67;100.00;95294.03;5099957;28;19938;-73
2024/01/02 07:36:00;;;;;;;;;;;;;;;4.73;100.00;95294.22;5101473;28;20007;-75
2024/01/02 07:38:26;;;;;;;;;;;;;;;4.76;100.00;95294.56;5100710;28;19986;-73
2024/01/02 07:40:53;;;;;;;;;;;;;;;4.81;100.00;95301.75;5100839;28;19943;-74
2024/01/02 07:43:18;;;;;;;;;;;;;;;4.84;100.00;95296.94;5101389;28;19938;-73
2024/01/02 07:45:44;;;;;;;;;;;;;;;4.88;100.00;95300.69;5101323;28;19976;-74
2024/01/02 07:48:10;;;;;;;;;;;;;;;4.99;100.00;95298.44;5101304;28;19943;-74
2024/01/02 07:50:36;;;;;;;;;;;;;;;5.08;100.00;95297.16;5106877;28;19975;-74
2024/01/02 07:53:02;;;;;;;;;;;;;;;5.18;100.00;95288.91;5119977;28;19948;-74
2024/01/02 07:55:28;;;;;;;;;;;;;;;5.28;100.00;95297.81;5121288;28;19940;-74
2024/01/02 07:57:54;;;;;;;;;;;;;;;5.37;100.00;95287.13;5120890;28;19940;-74
2024/01/02 08:00:20;;;;;;;;;;;;;;;5.48;100.00;95297.66;5121417;28;20019;-75
2024/01/02 08:02:46;;;;;;;;;;;;;;;5.57;100.00;95300.75;5111606;28;19941;-75
2024/01/02 08:05:11;;;;;;;;;;;;;;;5.62;100.00;95300.91;5107140;28;20243;-74
2024/01/02 08:07:37;;;;;;;;;;;;;;;5.67;100.00;95295.88;5106846;28;19987;-74
2024/01/02 08:10:03;;;;;;;;;;;;;;;5.71;100.00;95298.81;5105962;28;19942;-75
2024/01/02 08:12:29;;;;;;;;;;;;;;;5.77;100.00;95291.97;5107080;28;19942;-74
2024/01/02 08:14:55;;;;;;;;;;;;;;;5.82;100.00;95289.53;5107013;28;19945;-74
2024/01/02 08:17:23;;;;;;;;;;;;;;;5.84;100.00;95277.88;5105905;28;19946;-74
2024/01/02 08:19:50;;;;;;;;;;;;;;;5.86;100.00;95272.47;5106154;28;19953;-74
2024/01/02 08:22:18;;;;;;;;;;;;;;;5.90;100.00;95287.44;5107721;28;20207;-74
2024/01/02 08:24:46;;;;;;;;;;;;;;;5.93;100.00;95281.00;5106803;28;19944;-76
2024/01/02 08:27:13;;;;;;;;;;;;;;;5.95;100.00;95286.81;5106821;28;19950;-74
2024/01/02 08:29:38;;;;;;;;;;;;;;;5.96;100.00;95285.00;5106723;28;20109;-74
2024/01/02 08:32:04;;;;;;;;;;;;;;;5.97;100.00;95291.81;5106585;28;19959;-74
2024/01/02 08:34:30;;;;;;;;;;;;;;;5.99;100.00;95287.97;5106874;28;19937;-73
2024/01/02 08:36:57;;;;;;;;;;;;;;;6.02;100.00;95297.13;5106602;28;19943;-73
2024/01/02 08:39:22;;;;;;;;;;;;;;;6.06;100.00;95280.88;5107343;28;19937;-73
2024/01/02 08:41:48;;;;;;;;;;;;;;;6.12;100.00;95296.63;5106471;28;19975;-73
2024/01/02 08:44:14;;;;;;;;;;;;;;;6.14;100.00;95292.00;5106504;28;19979;-73
2024/01/02 08:46:40;;;;;;;;;;;;;;;6.16;100.00;95287.38;5105398;28;19942;-75
2024/01/02 08:49:06;;;;;;;;;;;;;;;6.19;100.00;95292.13;5088340;28;19970;-74
2024/01/02 08:51:32;;;;;;;;;;;;;;;6.22;100.00;95287.31;5105137;28;20268;-73
2024/01/02 08:53:58;;;;;;;;;;;;;;;6.21;100.00;95285.69;5105082;28;20237;-74
2024/01/02 08:56:24;;;;;;;;;;;;;;;6.24;100.00;95281.88;5107016;28;19948;-74
2024/01/02 08:58:50;;;;;;;;;;;;;;;6.26;100.00;95285.06;5105756;28;19987;-74
2024/01/02 09:01:17;;;;;;;;;;;;;;;6.29;100.00;95292.41;5104993;28;20246;-74
2024/01/02 09:03:43;;;;;;;;;;;;;;;6.33;100.00;95292.78;5106908;28;20220;-73
2024/01/02 09:06:09;;;;;;;;;;;;;;;6.37;100.00;95294.72;5106095;28;19934;-74
2024/01/02 09:08:35;;;;;;;;;;;;;;;6.39;100.00;95297.13;5106473;28;19959;-74
2024/01/02 09:11:01;;;;;;;;;;;;;;;6.43;100.00;95303.47;5105845;28;20267;-75
2024/01/02 09:13:27;;;;;;;;;;;;;;;6.45;100.00;95302.25;5105117;28;19942;-74
2024/01/02 09:15:52;;;;;;;;;;;;;;;6.47;100.00;95294.22;5105556;28;19938;-74
2024/01/02 09:18:18;;;;;;;;;;;;;;;6.52;100.00;95303.97;5105778;28;19942;-74
2024/01/02 09:20:47;;;;;;;;;;;;;;;6.54;100.00;95301.94;5106546;28;19932;-75
2024/01/02 09:23:13;;;;;;;;;;;;;;;6.57;100.00;95301.47;5106274;28;19999;-73
2024/01/02 09:25:43;;;;;;;;;;;;;;;6.60;100.00;95299.25;5106150;28;19933;-73
2024/01/02 09:28:09;;;;;;;;;;;;;;;6.63;100.00;95311.03;5106644;28;19945;-73
2024/01/02 09:30:36;;;;;;;;;;;;;;;6.64;100.00;95312.63;5105463;28;19969;-73
2024/01/02 09:33:01;;;;;;;;;;;;;;;6.66;100.00;95306.19;5106005;28;19937;-73
2024/01/02 09:35:27;;;;;;;;;;;;;;;6.69;100.00;95313.53;5105456;28;19943;-73
2024/01/02 09:37:54;;;;;;;;;;;;;;;6.72;100.00;95312.31;5105936;28;19970;-73
2024/01/02 09:40:36;;;;;;;;;;;;;;;6.75;100.00;95305.88;5105334;28;19962;-73
2024/01/02 09:43:05;;;;;;;;;;;;;;;6.79;100.00;95312.22;5105877;28;19945;-74
2024/01/02 09:45:42;;;;;;;;;;;;;;;6.80;100.00;95312.00;5104095;28;20236;-74
2024/01/02 09:48:17;;;;;;;;;;;;;;;6.82;100.00;95309.16;5104608;28;19935;-74
2024/01/02 09:50:52;;;;;;;;;;;;;;;6.83;100.00;95293.31;5103843;28;19965;-75
2024/01/02 09:53:27;;;;;;;;;;;;;;;6.85;100.00;95304.31;5105406;28;19946;-74
2024/01/02 09:56:11;;;;;;;;;;;;;;;6.87;100.00;95301.50;5105057;28;19945;-74
2024/01/02 09:58:53;;;;;;;;;;;;;;;6.89;100.00;95305.47;5103949;28;19939;-74
2024/01/02 10:01:27;;;;;;;;;;;;;;;6.91;100.00;95294.81;5105572;28;19937;-74
2024/01/02 10:03:53;;;;;;;;;;;;;;;6.95;100.00;95293.34;5105181;28;19940;-73
2024/01/02 10:06:19;;;;;;;;;;;;;;;6.99;100.00;95302.31;5104881;28;19955;-74
2024/01/02 10:08:49;;;;;;;;;;;;;;;7.02;100.00;95294.03;5104719;28;19951;-76
2024/01/02 10:11:28;;;;;;;;;;;;;;;7.04;100.00;95294.63;5105547;28;20165;-74
2024/01/02 10:13:59;;;;;;;;;;;;;;;7.07;100.00;95296.75;5104758;28;19942;-74
2024/01/02 10:16:30;;;;;;;;;;;;;;;7.11;100.00;95295.31;5105439;28;19942;-73
2024/01/02 10:18:56;;;;;;;;;;;;;;;7.15;100.00;95284.44;5105478;28;19941;-73
2024/01/02 10:21:24;;;;;;;;;;;;;;;7.19;100.00;95285.56;5104658;28;20121;-75
2024/01/02 10:24:09;;;;;;;;;;;;;;;7.22;100.00;95285.13;5104597;28;19937;-73
2024/01/02 10:26:38;;;;;;;;;;;;;;;7.27;100.00;95280.03;5104312;28;19940;-73
2024/01/02 10:29:09;;;;;;;;;;;;;;;7.30;100.00;95275.16;5104546;28;19945;-74
2024/01/02 10:31:40;;;;;;;;;;;;;;;7.33;100.00;95266.09;5104156;28;19966;-74
2024/01/02 10:34:26;;;;;;;;;;;;;;;7.32;100.00;95259.28;5105053;28;19940;-74
2024/01/02 10:36:57;;;;;;;;;;;;;;;7.33;100.00;95255.66;5093735;28;20034;-73
2024/01/02 10:39:37;;;;;;;;;;;;;;;7.35;100.00;95258.03;5104966;28;19946;-73
2024/01/02 10:42:26;;;;;;;;;;;;;;;7.38;100.00;95254.97;5105208;28;19933;-74
2024/01/02 10:45:10;;;;;;;;;;;;;;;7.38;100.00;95242.72;5104904;28;19943;-73
2024/01/02 10:47:36;;;;;;;;;;;;;;;7.41;100.00;95251.91;5104338;28;19943;-73
2024/01/02 10:50:03;;;;;;;;;;;;;;;7.42;100.00;95243.88;5104572;28;19996;-73
2024/01/02 10:52:38;;;;;;;;;;;;;;;7.44;100.00;95241.81;5104788;28;19963;-74
2024/01/02 10:55:28;;;;;;;;;;;;;;;7.47;100.00;95251.00;5104303;28;20226;-73
2024/01/02 10:58:07;;;;;;;;;;;;;;;7.50;100.00;95246.13;5104511;28;19941;-73
2024/01/02 11:00:37;;;;;;;;;;;;;;;7.55;100.00;95242.06;5062293;28;19945;-74
2024/01/02 11:03:10;;;;;;;;;;;;;;;7.57;100.00;95232.97;5029162;28;20158;-74
2024/01/02 11:05:36;;;;;;;;;;;;;;;7.61;100.00;95226.28;5062406;28;19935;-74
2024/01/02 11:08:06;;;;;;;;;;;;;;;7.66;100.00;95220.34;5062602;28;20016;-74
2024/01/02 11:10:35;;;;;;;;;;;;;;;7.69;100.00;95215.47;5045498;28;20100;-73
2024/01/02 11:13:01;;;;;;;;;;;;;;;7.72;100.00;95225.44;5045534;28;19939;-73
2024/01/02 11:15:31;;;;;;;;;;;;;;;7.76;100.00;95210.13;5062206;28;20132;-74
2024/01/02 11:17:57;;;;;;;;;;;;;;;7.81;100.00;95206.81;5062394;28;20126;-74
2024/01/02 11:20:30;;;;;;;;;;;;;;;7.84;100.00;95203.78;5045478;28;19949;-73
2024/01/02 11:23:02;;;;;;;;;;;;;;;7.85;100.00;95198.34;5062812;28;19934;-74
2024/01/02 11:25:31;;;;;;;;;;;;;;;7.89;100.00;95194.22;5062180;28;19948;-74
2024/01/02 11:27:59;;;;;;;;;;;;;;;7.91;100.00;95192.16;5028763;28;19971;-73
2024/01/02 11:30:26;;;;;;;;;;;;;;;7.92;100.00;95187.75;5063720;28;19962;-73
2024/01/02 11:33:01;;;;;;;;;;;;;;;7.92;100.00;95177.31;5103877;28;19966;-73
2024/01/02 11:35:34;;;;;;;;;;;;;;;7.95;100.00;95174.22;5103883;28;19948;-73
2024/01/02 11:38:07;;;;;;;;;;;;;;;7.99;100.00;95177.16;5106001;28;19941;-73
2024/01/02 11:40:39;;;;;;;;;;;;;;;8.01;100.00;95170.69;5108264;28;19936;-73
2024/01/02 11:43:08;;;;;;;;;;;;;;;8.01;100.00;95162.84;5107451;28;19947;-73
2024/01/02 11:45:36;;;;;;;;;;;;;;;8.05;100.00;95166.59;5107652;28;20014;-73
2024/01/02 11:48:21;;;;;;;;;;;;;;;8.08;100.00;95166.13;5108114;28;19961;-73
2024/01/02 11:50:52;;;;;;;;;;;;;;;8.11;100.00;95162.25;5107771;28;19968;-74
2024/01/02 11:53:34;;;;;;;;;;;;;;;8.12;100.00;95150.78;5106990;28;20104;-73
2024/01/02 11:56:05;;;;;;;;;;;;;;;8.15;100.00;95155.53;5108246;28;19969;-73
2024/01/02 11:58:51;;;;;;;;;;;;;;;8.17;100.00;95142.22;5106282;28;20008;-73
2024/01/02 12:01:20;;;;;;;;;;;;;;;8.21;100.00;95132.91;5107005;28;20260;-73
2024/01/02 12:03:45;;;;;;;;;;;;;;;8.24;100.00;95138.47;5107227;28;19943;-73
2024/01/02 12:06:23;;;;;;;;;;;;;;;8.27;100.00;95126.75;5106858;28;19944;-74
2024/01/02 12:08:52;;;;;;;;;;;;;;;8.28;100.00;95131.75;5106324;28;19964;-73
2024/01/02 12:11:19;;;;;;;;;;;;;;;8.26;100.00;95131.19;5106789;28;19956;-73
2024/01/02 12:13:56;;;;;;;;;;;;;;;8.25;100.00;95113.94;5107614;28;19934;-73
2024/01/02 12:16:22;;;;;;;;;;;;;;;8.26;100.00;95122.56;5107865;28;19936;-73
2024/01/02 12:18:48;;;;;;;;;;;;;;;8.23;100.00;95102.94;5106980;28;20003;-74
2024/01/02 12:21:17;;;;;;;;;;;;;;;8.22;100.00;95103.94;5106905;28;19957;-73
2024/01/02 12:23:49;;;;;;;;;;;;;;;8.22;100.00;95101.34;5106880;28;19942;-73
2024/01/02 12:26:16;;;;;;;;;;;;;;;8.23;100.00;95100.34;5107461;28;20215;-73
2024/01/02 12:28:42;;;;;;;;;;;;;;;8.24;100.00;95099.28;5105545;28;19943;-74
2024/01/02 12:31:16;;;;;;;;;;;;;;;8.24;100.00;95096.69;5106369;28;20069;-73
2024/01/02 12:33:57;;;;;;;;;;;;;;;8.22;100.00;95093.50;5105641;28;19936;-73
2024/01/02 12:36:30;;;;;;;;;;;;;;;8.20;100.00;95090.34;5107223;28;19947;-73
2024/01/02 12:39:04;;;;;;;;;;;;;;;8.19;100.00;95078.31;5106565;28;20043;-73
2024/01/02 12:41:35;;;;;;;;;;;;;;;8.16;100.00;95084.00;5107026;28;19945;-73
2024/01/02 12:44:02;;;;;;;;;;;;;;;8.14;100.00;95078.22;5107052;28;19934;-74
2024/01/02 12:46:31;;;;;;;;;;;;;;;8.13;100.00;95066.22;5106513;28;19942;-73
2024/01/02 12:49:10;;;;;;;;;;;;;;;8.14;100.00;95073.00;5106866;28;20207;-73